UMII

Details ICAO UMII (VTB)
Name VITEBSK
Region Belarus and Russia (Kaliningrad Oblast)
Timezone Europe/Minsk (UTC+3.0)
Plans Departing 29
Arriving 15
Stats Elevation 683 ft / 208 m (AMSL)
Location 55.126497° 30.349642°
Runways 1
Magnetic Variation 9.007° E
Sunrise 2017-12-15 06:19:34 UTC / 2017-12-15 09:19:34 Local
Sunset 2017-12-15 13:30:39 UTC / 2017-12-15 16:30:39 Local
Advertisement - Login to hide

Runways

ID Width Length Bearing (true) Bearing (mag) Surface Threshold Offset Overrun Length
06 138 ft / 42 m 8,531 ft / 2,600 m 61.93° 52.92° Asphalt 0 ft / 0 m 0 ft / 0 m
24 138 ft / 42 m 8,531 ft / 2,600 m 241.96° 232.95° Asphalt 0 ft / 0 m 0 ft / 0 m

Approach Navaids

Runway Type Ident Frequency Range Bearing (true) Bearing (mag) Slope Elevation
24 Localiser IUU 111.90 MHz 18 nm / 33 km 239.76° 230.76° - 683 ft / 208 m (AMSL)
24 Glidescope IUU 111.90 MHz 10 nm / 19 km 241.95° 232.94° 3.00° 683 ft / 208 m (AMSL)

Map

Weather


0- 5 10 15 20 25 30 35+ Temperature / ° C

Clouds and Precipitation
Forecast for 2017-12-15 18:00 UTC. Updated 31 minutes ago

Ground ~20,000 ft ~40,000 ft Winds

METAR

UMII 151500Z 16005G08MPS 6000 FEW010 SCT066 M00/M02 Q1005 R23/920240 TEMPO 2000 SN BKN005

TAF

Not found

Frequencies

Approach 120.40 MHz APP
Approach 124.00 MHz APP
Warning: Do not use this data for real-world aviation or navigation. No guarantee of current accuracy is given.